PWSweather.com
Personal Weather Stations
Station Observations
KILMORRI1
Goose Lake, Morris, IL 60450

Goose LakeMorris, IL 60450

Lat: 41.34, Lon: -88.3

Elevation: 523

Station Type:

www.gooselakeweather.com

High Low Average
Temperature 79.3°F26.3°C 60.0°F15.6°C 70.7°F21.5°C
Dew Point 70.7°F21.5°C 57.4°F14.1°C 64.7°F18.2°C
Winds 10.4 mph 16.7 kmh Calm Calm 4.0 mph ESE6.4 kmh ESE
Wind Gusts 16.1 mph25.9 kmh -- 6.0 mph9.7 kmh
Humidity 96% 66% 82%
Pressure 30.01 in1016.3 mb 29.87 in1011.5 mb -
Precipitation 0.00 in0.0 mm - -
Hour Temp Dew Point Humidity Winds Wind Gusts Pressure Precip Precip Rate Daily Precip Total
12:00 AM 65.1°F18.4°C 63.3°F17.4°C 94% 2.3 mph SSW3.7 kmh SSW 3.5 mph5.6 kmh 29.98 in1015.2 mb - 0.00 in0.0 mm 0.00 in0.0 mm
12:10 AM 65.1°F18.4°C 63.6°F17.6°C 95% Calm Calm 2.3 mph3.7 kmh 29.99 in1015.6 mb - 0.00 in0.0 mm 0.00 in0.0 mm
12:20 AM 65.2°F18.4°C 63.7°F17.6°C 95% 2.3 mph SSW3.7 kmh SSW 3.5 mph5.6 kmh 30.00 in1015.9 mb - 0.00 in0.0 mm 0.00 in0.0 mm
12:30 AM 65.4°F18.6°C 63.9°F17.7°C 95% 1.2 mph SSW1.9 kmh SSW 2.3 mph3.7 kmh 30.00 in1015.9 mb - 0.00 in0.0 mm 0.00 in0.0 mm
12:40 AM 65.2°F18.4°C 63.7°F17.6°C 95% Calm Calm 1.2 mph1.9 kmh 30.00 in1015.9 mb - 0.00 in0.0 mm 0.00 in0.0 mm
12:50 AM 64.9°F18.3°C 63.4°F17.4°C 95% Calm Calm -- 30.00 in1015.9 mb - 0.00 in0.0 mm 0.00 in0.0 mm
01:00 AM 64.2°F17.9°C 62.7°F17.1°C 95% Calm Calm -- 30.00 in1015.9 mb - 0.00 in0.0 mm 0.00 in0.0 mm
01:10 AM 64.0°F17.8°C 62.5°F16.9°C 95% Calm Calm -- 29.99 in1015.6 mb - 0.00 in0.0 mm 0.00 in0.0 mm
01:20 AM 64.1°F17.8°C 63.0°F17.2°C 96% Calm Calm -- 29.99 in1015.6 mb - 0.00 in0.0 mm 0.00 in0.0 mm
01:30 AM 63.4°F17.4°C 62.0°F16.7°C 95% 1.2 mph SSW1.9 kmh SSW 2.3 mph3.7 kmh 29.98 in1015.2 mb - 0.00 in0.0 mm 0.00 in0.0 mm
01:40 AM 63.3°F17.4°C 62.1°F16.7°C 96% 3.5 mph SSW5.6 kmh SSW 4.6 mph7.4 kmh 29.96 in1014.6 mb - 0.00 in0.0 mm 0.00 in0.0 mm
01:50 AM 65.5°F18.6°C 64.3°F17.9°C 96% 2.3 mph SSW3.7 kmh SSW 3.5 mph5.6 kmh 29.96 in1014.6 mb - 0.00 in0.0 mm 0.00 in0.0 mm
02:00 AM 66.4°F19.1°C 64.3°F17.9°C 93% 2.3 mph SW3.7 kmh SW 3.5 mph5.6 kmh 29.97 in1014.9 mb - 0.00 in0.0 mm 0.00 in0.0 mm
02:10 AM 66.3°F19.1°C 64.3°F17.9°C 93% 2.3 mph SW3.7 kmh SW 3.5 mph5.6 kmh 29.97 in1014.9 mb - 0.00 in0.0 mm 0.00 in0.0 mm
02:20 AM 66.3°F19.1°C 64.2°F17.9°C 93% 2.3 mph SW3.7 kmh SW 3.5 mph5.6 kmh 29.96 in1014.6 mb - 0.00 in0.0 mm 0.00 in0.0 mm
02:30 AM 66.8°F19.3°C 64.4°F18.0°C 92% 2.3 mph SW3.7 kmh SW 4.6 mph7.4 kmh 29.96 in1014.6 mb - 0.00 in0.0 mm 0.00 in0.0 mm
02:40 AM 67.1°F19.5°C 64.4°F18.0°C 91% Calm Calm 1.2 mph1.9 kmh 29.99 in1015.6 mb - 0.00 in0.0 mm 0.00 in0.0 mm
02:50 AM 67.0°F19.4°C 64.3°F17.9°C 91% Calm Calm 1.2 mph1.9 kmh 30.00 in1015.9 mb - 0.00 in0.0 mm 0.00 in0.0 mm
03:00 AM 67.1°F19.5°C 64.7°F18.2°C 92% Calm Calm -- 29.99 in1015.6 mb - 0.00 in0.0 mm 0.00 in0.0 mm
03:10 AM 66.7°F19.3°C 64.3°F17.9°C 92% 1.2 mph WSW1.9 kmh WSW 2.3 mph3.7 kmh 29.99 in1015.6 mb - 0.00 in0.0 mm 0.00 in0.0 mm
03:20 AM 66.6°F19.2°C 64.2°F17.9°C 92% 3.5 mph SW5.6 kmh SW 3.5 mph5.6 kmh 29.97 in1014.9 mb - 0.00 in0.0 mm 0.00 in0.0 mm
03:30 AM 66.7°F19.3°C 64.3°F17.9°C 92% 2.3 mph SW3.7 kmh SW 3.5 mph5.6 kmh 29.96 in1014.6 mb - 0.00 in0.0 mm 0.00 in0.0 mm
03:40 AM 67.3°F19.6°C 64.2°F17.9°C 90% 2.3 mph SSW3.7 kmh SSW 1.2 mph1.9 kmh 29.97 in1014.9 mb - 0.00 in0.0 mm 0.00 in0.0 mm
03:50 AM 67.0°F19.4°C 64.3°F17.9°C 91% 1.2 mph W1.9 kmh W 3.5 mph5.6 kmh 29.98 in1015.2 mb - 0.00 in0.0 mm 0.00 in0.0 mm
04:00 AM 66.8°F19.3°C 64.1°F17.8°C 91% Calm Calm 2.3 mph3.7 kmh 29.96 in1014.6 mb - 0.00 in0.0 mm 0.00 in0.0 mm
04:10 AM 66.4°F19.1°C 64.0°F17.8°C 92% 2.3 mph SE3.7 kmh SE 3.5 mph5.6 kmh 29.96 in1014.6 mb - 0.00 in0.0 mm 0.00 in0.0 mm
04:20 AM 66.3°F19.1°C 64.2°F17.9°C 93% 2.3 mph SE3.7 kmh SE 3.5 mph5.6 kmh 29.94 in1013.9 mb - 0.00 in0.0 mm 0.00 in0.0 mm
04:30 AM 66.6°F19.2°C 64.2°F17.9°C 92% 8.1 mph E13.0 kmh E 10.4 mph16.7 kmh 29.95 in1014.2 mb - 0.00 in0.0 mm 0.00 in0.0 mm
04:40 AM 66.7°F19.3°C 64.3°F17.9°C 92% 9.2 mph S14.8 kmh S 16.1 mph25.9 kmh 29.87 in1011.5 mb - 0.00 in0.0 mm 0.00 in0.0 mm
04:50 AM 67.5°F19.7°C 64.5°F18.1°C 90% 8.1 mph SSW13.0 kmh SSW 11.5 mph18.5 kmh 29.87 in1011.5 mb - 0.00 in0.0 mm 0.00 in0.0 mm
05:00 AM 68.0°F20.0°C 64.6°F18.1°C 89% 3.5 mph W5.6 kmh W 5.8 mph9.3 kmh 29.92 in1013.2 mb - 0.00 in0.0 mm 0.00 in0.0 mm
05:10 AM 67.8°F19.9°C 64.8°F18.2°C 90% 3.5 mph NW5.6 kmh NW 5.8 mph9.3 kmh 29.94 in1013.9 mb - 0.00 in0.0 mm 0.00 in0.0 mm
05:20 AM 67.8°F19.9°C 64.8°F18.2°C 90% 2.3 mph WNW3.7 kmh WNW 3.5 mph5.6 kmh 29.93 in1013.5 mb - 0.00 in0.0 mm 0.00 in0.0 mm
05:30 AM 67.7°F19.8°C 64.6°F18.1°C 90% Calm Calm 3.5 mph5.6 kmh 29.93 in1013.5 mb - 0.00 in0.0 mm 0.00 in0.0 mm
05:40 AM 67.5°F19.7°C 64.8°F18.2°C 91% 2.3 mph WSW3.7 kmh WSW 3.5 mph5.6 kmh 29.92 in1013.2 mb - 0.00 in0.0 mm 0.00 in0.0 mm
05:50 AM 68.0°F20.0°C 65.0°F18.3°C 90% 2.3 mph NW3.7 kmh NW 3.5 mph5.6 kmh 29.94 in1013.9 mb - 0.00 in0.0 mm 0.00 in0.0 mm
06:00 AM 67.8°F19.9°C 64.7°F18.2°C 90% 3.5 mph E5.6 kmh E 4.6 mph7.4 kmh 29.94 in1013.9 mb - 0.00 in0.0 mm 0.00 in0.0 mm
06:10 AM 67.4°F19.7°C 65.0°F18.3°C 92% 4.6 mph ENE7.4 kmh ENE 4.6 mph7.4 kmh 29.95 in1014.2 mb - 0.00 in0.0 mm 0.00 in0.0 mm
06:20 AM 67.5°F19.7°C 65.1°F18.4°C 92% Calm Calm 1.2 mph1.9 kmh 29.95 in1014.2 mb - 0.00 in0.0 mm 0.00 in0.0 mm
06:30 AM 67.7°F19.8°C 65.3°F18.5°C 92% 1.2 mph E1.9 kmh E 2.3 mph3.7 kmh 29.96 in1014.6 mb - 0.00 in0.0 mm 0.00 in0.0 mm
06:40 AM 68.5°F20.3°C 65.7°F18.7°C 91% 3.5 mph ENE5.6 kmh ENE 3.5 mph5.6 kmh 29.96 in1014.6 mb - 0.00 in0.0 mm 0.00 in0.0 mm
06:50 AM 68.8°F20.4°C 65.7°F18.7°C 90% 2.3 mph E3.7 kmh E 4.6 mph7.4 kmh 29.96 in1014.6 mb - 0.00 in0.0 mm 0.00 in0.0 mm
07:00 AM 69.2°F20.7°C 66.1°F18.9°C 90% Calm Calm -- 29.97 in1014.9 mb - 0.00 in0.0 mm 0.00 in0.0 mm
07:10 AM 69.3°F20.7°C 66.5°F19.2°C 91% 1.2 mph SSE1.9 kmh SSE 3.5 mph5.6 kmh 29.97 in1014.9 mb - 0.00 in0.0 mm 0.00 in0.0 mm
07:20 AM 70.5°F21.4°C 67.4°F19.7°C 90% 1.2 mph S1.9 kmh S 2.3 mph3.7 kmh 29.97 in1014.9 mb - 0.00 in0.0 mm 0.00 in0.0 mm
07:30 AM 71.3°F21.8°C 67.5°F19.7°C 88% 1.2 mph S1.9 kmh S 3.5 mph5.6 kmh 29.98 in1015.2 mb - 0.00 in0.0 mm 0.00 in0.0 mm
07:40 AM 72.0°F22.2°C 67.9°F19.9°C 87% 1.2 mph SSE1.9 kmh SSE 3.5 mph5.6 kmh 29.98 in1015.2 mb - 0.00 in0.0 mm 0.00 in0.0 mm
07:50 AM 73.1°F22.8°C 68.3°F20.2°C 85% 2.3 mph SSE3.7 kmh SSE 3.5 mph5.6 kmh 29.98 in1015.2 mb - 0.00 in0.0 mm 0.00 in0.0 mm
08:00 AM 73.5°F23.1°C 68.4°F20.2°C 84% 1.2 mph SSE1.9 kmh SSE 2.3 mph3.7 kmh 29.98 in1015.2 mb - 0.00 in0.0 mm 0.00 in0.0 mm
08:10 AM 73.3°F22.9°C 68.1°F20.1°C 84% 1.2 mph SSE1.9 kmh SSE 2.3 mph3.7 kmh 29.99 in1015.6 mb - 0.00 in0.0 mm 0.00 in0.0 mm
08:20 AM 74.3°F23.5°C 68.1°F20.1°C 81% Calm Calm -- 29.98 in1015.2 mb - 0.00 in0.0 mm 0.00 in0.0 mm
08:30 AM 75.1°F23.9°C 68.5°F20.3°C 80% 2.3 mph SSE3.7 kmh SSE 3.5 mph5.6 kmh 29.98 in1015.2 mb - 0.00 in0.0 mm 0.00 in0.0 mm
08:40 AM 76.0°F24.4°C 68.6°F20.3°C 78% Calm Calm 3.5 mph5.6 kmh 29.97 in1014.9 mb - 0.00 in0.0 mm 0.00 in0.0 mm
08:50 AM 76.8°F24.9°C 69.0°F20.6°C 77% 3.5 mph ENE5.6 kmh ENE 4.6 mph7.4 kmh 29.97 in1014.9 mb - 0.00 in0.0 mm 0.00 in0.0 mm
09:00 AM 76.0°F24.4°C 68.6°F20.3°C 78% 2.3 mph N3.7 kmh N 3.5 mph5.6 kmh 29.96 in1014.6 mb - 0.00 in0.0 mm 0.00 in0.0 mm
09:10 AM 75.3°F24.1°C 68.3°F20.2°C 79% Calm Calm 2.3 mph3.7 kmh 29.96 in1014.6 mb - 0.00 in0.0 mm 0.00 in0.0 mm
09:20 AM 76.5°F24.7°C 68.7°F20.4°C 77% 1.2 mph N1.9 kmh N 3.5 mph5.6 kmh 29.96 in1014.6 mb - 0.00 in0.0 mm 0.00 in0.0 mm
09:30 AM 76.2°F24.6°C 68.5°F20.3°C 77% Calm Calm 1.2 mph1.9 kmh 29.96 in1014.6 mb - 0.00 in0.0 mm 0.00 in0.0 mm
09:40 AM 76.3°F24.6°C 68.5°F20.3°C 77% Calm Calm -- 29.96 in1014.6 mb - 0.00 in0.0 mm 0.00 in0.0 mm
09:50 AM 77.0°F25.0°C 70.0°F21.1°C 79% 2.3 mph NE3.7 kmh NE 3.5 mph5.6 kmh 29.97 in1014.9 mb - 0.00 in0.0 mm 0.00 in0.0 mm
10:00 AM 77.1°F25.1°C 70.1°F21.2°C 79% 2.3 mph E3.7 kmh E 3.5 mph5.6 kmh 29.96 in1014.6 mb - 0.00 in0.0 mm 0.00 in0.0 mm
10:10 AM 77.5°F25.3°C 70.1°F21.2°C 78% 5.8 mph ENE9.3 kmh ENE 6.9 mph11.1 kmh 29.96 in1014.6 mb - 0.00 in0.0 mm 0.00 in0.0 mm
10:20 AM 77.5°F25.3°C 70.1°F21.2°C 78% 5.8 mph ENE9.3 kmh ENE 9.2 mph14.8 kmh 29.96 in1014.6 mb - 0.00 in0.0 mm 0.00 in0.0 mm
10:30 AM 79.3°F26.3°C 70.7°F21.5°C 75% 6.9 mph E11.1 kmh E 10.4 mph16.7 kmh 29.96 in1014.6 mb - 0.00 in0.0 mm 0.00 in0.0 mm
10:40 AM 79.2°F26.2°C 69.8°F21.0°C 73% 4.6 mph ENE7.4 kmh ENE 5.8 mph9.3 kmh 29.96 in1014.6 mb - 0.00 in0.0 mm 0.00 in0.0 mm
10:50 AM 77.8°F25.4°C 69.6°F20.9°C 76% 5.8 mph ENE9.3 kmh ENE 11.5 mph18.5 kmh 29.95 in1014.2 mb - 0.00 in0.0 mm 0.00 in0.0 mm
11:00 AM 78.2°F25.7°C 70.0°F21.1°C 76% 8.1 mph E13.0 kmh E 10.4 mph16.7 kmh 29.95 in1014.2 mb - 0.00 in0.0 mm 0.00 in0.0 mm
11:10 AM 77.8°F25.4°C 70.0°F21.1°C 77% 2.3 mph E3.7 kmh E 4.6 mph7.4 kmh 29.96 in1014.6 mb - 0.00 in0.0 mm 0.00 in0.0 mm
11:20 AM 77.0°F25.0°C 68.9°F20.5°C 76% Calm Calm 3.5 mph5.6 kmh 29.96 in1014.6 mb - 0.00 in0.0 mm 0.00 in0.0 mm
11:30 AM 77.1°F25.1°C 68.9°F20.5°C 76% 3.5 mph E5.6 kmh E 4.6 mph7.4 kmh 29.96 in1014.6 mb - 0.00 in0.0 mm 0.00 in0.0 mm
11:40 AM 76.7°F24.8°C 69.3°F20.7°C 78% 2.3 mph E3.7 kmh E 6.9 mph11.1 kmh 29.95 in1014.2 mb - 0.00 in0.0 mm 0.00 in0.0 mm
11:50 AM 76.9°F24.9°C 69.1°F20.6°C 77% 3.5 mph ESE5.6 kmh ESE 4.6 mph7.4 kmh 29.96 in1014.6 mb - 0.00 in0.0 mm 0.00 in0.0 mm
12:00 PM 76.7°F24.8°C 68.9°F20.5°C 77% 2.3 mph E3.7 kmh E 3.5 mph5.6 kmh 29.96 in1014.6 mb - 0.00 in0.0 mm 0.00 in0.0 mm
12:10 PM 76.6°F24.8°C 68.9°F20.5°C 77% 1.2 mph ENE1.9 kmh ENE 2.3 mph3.7 kmh 29.96 in1014.6 mb - 0.00 in0.0 mm 0.00 in0.0 mm
12:20 PM 76.5°F24.7°C 69.1°F20.6°C 78% 1.2 mph ENE1.9 kmh ENE 3.5 mph5.6 kmh 29.96 in1014.6 mb - 0.00 in0.0 mm 0.00 in0.0 mm
12:30 PM 76.8°F24.9°C 69.0°F20.6°C 77% 2.3 mph ENE3.7 kmh ENE 3.5 mph5.6 kmh 29.96 in1014.6 mb - 0.00 in0.0 mm 0.00 in0.0 mm
12:40 PM 76.6°F24.8°C 69.2°F20.7°C 78% 2.3 mph ENE3.7 kmh ENE 6.9 mph11.1 kmh 29.96 in1014.6 mb - 0.00 in0.0 mm 0.00 in0.0 mm
12:50 PM 76.4°F24.7°C 68.6°F20.3°C 77% 3.5 mph NE5.6 kmh NE 6.9 mph11.1 kmh 29.96 in1014.6 mb - 0.00 in0.0 mm 0.00 in0.0 mm
01:00 PM 76.3°F24.6°C 69.0°F20.6°C 78% 4.6 mph NE7.4 kmh NE 5.8 mph9.3 kmh 29.96 in1014.6 mb - 0.00 in0.0 mm 0.00 in0.0 mm
01:10 PM 76.3°F24.6°C 69.0°F20.6°C 78% 5.8 mph ENE9.3 kmh ENE 8.1 mph13.0 kmh 29.96 in1014.6 mb - 0.00 in0.0 mm 0.00 in0.0 mm
01:20 PM 76.0°F24.4°C 68.6°F20.3°C 78% 5.8 mph NE9.3 kmh NE 6.9 mph11.1 kmh 29.96 in1014.6 mb - 0.00 in0.0 mm 0.00 in0.0 mm
01:30 PM 75.8°F24.3°C 68.8°F20.4°C 79% 4.6 mph NE7.4 kmh NE 9.2 mph14.8 kmh 29.96 in1014.6 mb - 0.00 in0.0 mm 0.00 in0.0 mm
01:40 PM 75.5°F24.2°C 68.5°F20.3°C 79% 5.8 mph ENE9.3 kmh ENE 8.1 mph13.0 kmh 29.96 in1014.6 mb - 0.00 in0.0 mm 0.00 in0.0 mm
01:50 PM 75.0°F23.9°C 68.4°F20.2°C 80% 5.8 mph NNE9.3 kmh NNE 9.2 mph14.8 kmh 29.96 in1014.6 mb - 0.00 in0.0 mm 0.00 in0.0 mm
02:00 PM 74.4°F23.6°C 67.5°F19.7°C 79% 9.2 mph NE14.8 kmh NE 11.5 mph18.5 kmh 29.96 in1014.6 mb - 0.00 in0.0 mm 0.00 in0.0 mm
02:10 PM 75.1°F23.9°C 68.1°F20.1°C 79% 5.8 mph NE9.3 kmh NE 9.2 mph14.8 kmh 29.96 in1014.6 mb - 0.00 in0.0 mm 0.00 in0.0 mm
02:20 PM 74.9°F23.8°C 67.9°F19.9°C 79% 8.1 mph ENE13.0 kmh ENE 10.4 mph16.7 kmh 29.96 in1014.6 mb - 0.00 in0.0 mm 0.00 in0.0 mm
02:30 PM 73.9°F23.3°C 66.9°F19.4°C 79% 6.9 mph ENE11.1 kmh ENE 12.7 mph20.4 kmh 29.96 in1014.6 mb - 0.00 in0.0 mm 0.00 in0.0 mm
02:40 PM 73.3°F22.9°C 66.8°F19.3°C 80% 9.2 mph E14.8 kmh E 10.4 mph16.7 kmh 29.97 in1014.9 mb - 0.00 in0.0 mm 0.00 in0.0 mm
02:50 PM 73.2°F22.9°C 67.0°F19.4°C 81% 6.9 mph ENE11.1 kmh ENE 9.2 mph14.8 kmh 29.97 in1014.9 mb - 0.00 in0.0 mm 0.00 in0.0 mm
03:00 PM 73.5°F23.1°C 67.0°F19.4°C 80% 6.9 mph ENE11.1 kmh ENE 9.2 mph14.8 kmh 29.96 in1014.6 mb - 0.00 in0.0 mm 0.00 in0.0 mm
03:10 PM 73.4°F23.0°C 66.9°F19.4°C 80% 6.9 mph ENE11.1 kmh ENE 11.5 mph18.5 kmh 29.97 in1014.9 mb - 0.00 in0.0 mm 0.00 in0.0 mm
03:20 PM 73.1°F22.8°C 66.6°F19.2°C 80% 8.1 mph ENE13.0 kmh ENE 12.7 mph20.4 kmh 29.97 in1014.9 mb - 0.00 in0.0 mm 0.00 in0.0 mm
03:30 PM 73.1°F22.8°C 66.2°F19.0°C 79% 3.5 mph NE5.6 kmh NE 4.6 mph7.4 kmh 29.97 in1014.9 mb - 0.00 in0.0 mm 0.00 in0.0 mm
03:40 PM 72.8°F22.7°C 66.0°F18.9°C 79% 5.8 mph NE9.3 kmh NE 9.2 mph14.8 kmh 29.97 in1014.9 mb - 0.00 in0.0 mm 0.00 in0.0 mm
03:50 PM 72.8°F22.7°C 65.9°F18.8°C 79% 6.9 mph NE11.1 kmh NE 9.2 mph14.8 kmh 29.97 in1014.9 mb - 0.00 in0.0 mm 0.00 in0.0 mm
04:00 PM 72.9°F22.7°C 66.0°F18.9°C 79% 8.1 mph ENE13.0 kmh ENE 11.5 mph18.5 kmh 29.97 in1014.9 mb - 0.00 in0.0 mm 0.00 in0.0 mm
04:10 PM 73.1°F22.8°C 65.8°F18.8°C 78% 4.6 mph ENE7.4 kmh ENE 4.6 mph7.4 kmh 29.96 in1014.6 mb - 0.00 in0.0 mm 0.00 in0.0 mm
04:20 PM 73.2°F22.9°C 66.3°F19.1°C 79% 4.6 mph ENE7.4 kmh ENE 6.9 mph11.1 kmh 29.96 in1014.6 mb - 0.00 in0.0 mm 0.00 in0.0 mm
04:30 PM 73.4°F23.0°C 66.1°F18.9°C 78% 5.8 mph ENE9.3 kmh ENE 9.2 mph14.8 kmh 29.96 in1014.6 mb - 0.00 in0.0 mm 0.00 in0.0 mm
04:40 PM 74.5°F23.6°C 66.4°F19.1°C 76% 6.9 mph ENE11.1 kmh ENE 9.2 mph14.8 kmh 29.96 in1014.6 mb - 0.00 in0.0 mm 0.00 in0.0 mm
04:50 PM 74.6°F23.7°C 66.6°F19.2°C 76% 4.6 mph ENE7.4 kmh ENE 6.9 mph11.1 kmh 29.95 in1014.2 mb - 0.00 in0.0 mm 0.00 in0.0 mm
05:00 PM 75.0°F23.9°C 66.5°F19.2°C 75% 4.6 mph ENE7.4 kmh ENE 6.9 mph11.1 kmh 29.95 in1014.2 mb - 0.00 in0.0 mm 0.00 in0.0 mm
05:10 PM 75.5°F24.2°C 65.8°F18.8°C 72% 5.8 mph NE9.3 kmh NE 10.4 mph16.7 kmh 29.95 in1014.2 mb - 0.00 in0.0 mm 0.00 in0.0 mm
05:20 PM 75.2°F24.0°C 65.2°F18.4°C 71% 6.9 mph ENE11.1 kmh ENE 10.4 mph16.7 kmh 29.95 in1014.2 mb - 0.00 in0.0 mm 0.00 in0.0 mm
05:30 PM 76.6°F24.8°C 65.6°F18.7°C 69% 8.1 mph ENE13.0 kmh ENE 12.7 mph20.4 kmh 29.95 in1014.2 mb - 0.00 in0.0 mm 0.00 in0.0 mm
05:40 PM 76.6°F24.8°C 66.1°F18.9°C 70% 6.9 mph NE11.1 kmh NE 8.1 mph13.0 kmh 29.94 in1013.9 mb - 0.00 in0.0 mm 0.00 in0.0 mm
05:50 PM 76.7°F24.8°C 66.2°F19.0°C 70% 5.8 mph NE9.3 kmh NE 10.4 mph16.7 kmh 29.94 in1013.9 mb - 0.00 in0.0 mm 0.00 in0.0 mm
06:00 PM 76.3°F24.6°C 65.8°F18.8°C 70% 9.2 mph NE14.8 kmh NE 12.7 mph20.4 kmh 29.94 in1013.9 mb - 0.00 in0.0 mm 0.00 in0.0 mm
06:10 PM 76.2°F24.6°C 65.3°F18.5°C 69% 6.9 mph ENE11.1 kmh ENE 10.4 mph16.7 kmh 29.94 in1013.9 mb - 0.00 in0.0 mm 0.00 in0.0 mm
06:20 PM 75.8°F24.3°C 65.3°F18.5°C 70% 5.8 mph NE9.3 kmh NE 10.4 mph16.7 kmh 29.94 in1013.9 mb - 0.00 in0.0 mm 0.00 in0.0 mm
06:30 PM 75.3°F24.1°C 63.6°F17.6°C 67% 10.4 mph NE16.7 kmh NE 15.0 mph24.1 kmh 29.94 in1013.9 mb - 0.00 in0.0 mm 0.00 in0.0 mm
06:40 PM 74.6°F23.7°C 63.8°F17.7°C 69% 10.4 mph NE16.7 kmh NE 12.7 mph20.4 kmh 29.94 in1013.9 mb - 0.00 in0.0 mm 0.00 in0.0 mm
06:50 PM 74.1°F23.4°C 62.8°F17.1°C 68% 9.2 mph NE14.8 kmh NE 11.5 mph18.5 kmh 29.94 in1013.9 mb - 0.00 in0.0 mm 0.00 in0.0 mm
07:00 PM 73.6°F23.1°C 63.7°F17.6°C 71% 9.2 mph ENE14.8 kmh ENE 11.5 mph18.5 kmh 29.94 in1013.9 mb - 0.00 in0.0 mm 0.00 in0.0 mm
07:10 PM 73.2°F22.9°C 62.4°F16.9°C 69% 8.1 mph NE13.0 kmh NE 12.7 mph20.4 kmh 29.94 in1013.9 mb - 0.00 in0.0 mm 0.00 in0.0 mm
07:20 PM 72.4°F22.4°C 61.7°F16.5°C 69% 5.8 mph NE9.3 kmh NE 6.9 mph11.1 kmh 29.95 in1014.2 mb - 0.00 in0.0 mm 0.00 in0.0 mm
07:30 PM 71.8°F22.1°C 59.9°F15.5°C 66% 5.8 mph NE9.3 kmh NE 6.9 mph11.1 kmh 29.95 in1014.2 mb - 0.00 in0.0 mm 0.00 in0.0 mm
07:40 PM 71.2°F21.8°C 59.3°F15.2°C 66% 4.6 mph ENE7.4 kmh ENE 6.9 mph11.1 kmh 29.96 in1014.6 mb - 0.00 in0.0 mm 0.00 in0.0 mm
07:50 PM 70.5°F21.4°C 58.6°F14.8°C 66% 5.8 mph ENE9.3 kmh ENE 8.1 mph13.0 kmh 29.95 in1014.2 mb - 0.00 in0.0 mm 0.00 in0.0 mm
08:00 PM 69.8°F21.0°C 57.9°F14.4°C 66% 1.2 mph NE1.9 kmh NE 3.5 mph5.6 kmh 29.96 in1014.6 mb - 0.00 in0.0 mm 0.00 in0.0 mm
08:10 PM 69.0°F20.6°C 58.0°F14.4°C 68% 2.3 mph NE3.7 kmh NE 4.6 mph7.4 kmh 29.96 in1014.6 mb - 0.00 in0.0 mm 0.00 in0.0 mm
08:20 PM 68.7°F20.4°C 58.1°F14.5°C 69% 3.5 mph NE5.6 kmh NE 6.9 mph11.1 kmh 29.96 in1014.6 mb - 0.00 in0.0 mm 0.00 in0.0 mm
08:30 PM 67.8°F19.9°C 58.5°F14.7°C 72% 2.3 mph NE3.7 kmh NE 3.5 mph5.6 kmh 29.97 in1014.9 mb - 0.00 in0.0 mm 0.00 in0.0 mm
08:40 PM 65.8°F18.8°C 58.4°F14.7°C 77% Calm Calm -- 29.97 in1014.9 mb - 0.00 in0.0 mm 0.00 in0.0 mm
08:50 PM 64.7°F18.2°C 58.7°F14.8°C 81% 1.2 mph NE1.9 kmh NE 2.3 mph3.7 kmh 29.97 in1014.9 mb - 0.00 in0.0 mm 0.00 in0.0 mm
09:00 PM 63.9°F17.7°C 58.6°F14.8°C 83% 1.2 mph NE1.9 kmh NE 3.5 mph5.6 kmh 29.98 in1015.2 mb - 0.00 in0.0 mm 0.00 in0.0 mm
09:10 PM 64.0°F17.8°C 59.1°F15.1°C 84% 1.2 mph NE1.9 kmh NE 2.3 mph3.7 kmh 29.98 in1015.2 mb - 0.00 in0.0 mm 0.00 in0.0 mm
09:20 PM 64.6°F18.1°C 59.3°F15.2°C 83% 4.6 mph ENE7.4 kmh ENE 3.5 mph5.6 kmh 29.98 in1015.2 mb - 0.00 in0.0 mm 0.00 in0.0 mm
09:30 PM 65.5°F18.6°C 59.5°F15.3°C 81% 3.5 mph ENE5.6 kmh ENE 3.5 mph5.6 kmh 29.98 in1015.2 mb - 0.00 in0.0 mm 0.00 in0.0 mm
09:40 PM 65.8°F18.8°C 59.8°F15.4°C 81% 2.3 mph E3.7 kmh E 5.8 mph9.3 kmh 29.99 in1015.6 mb - 0.00 in0.0 mm 0.00 in0.0 mm
09:50 PM 65.8°F18.8°C 59.8°F15.4°C 81% 5.8 mph ENE9.3 kmh ENE 9.2 mph14.8 kmh 29.99 in1015.6 mb - 0.00 in0.0 mm 0.00 in0.0 mm
10:00 PM 65.7°F18.7°C 60.1°F15.6°C 82% 6.9 mph ENE11.1 kmh ENE 8.1 mph13.0 kmh 30.00 in1015.9 mb - 0.00 in0.0 mm 0.00 in0.0 mm
10:10 PM 65.4°F18.6°C 60.1°F15.6°C 83% 3.5 mph ENE5.6 kmh ENE 6.9 mph11.1 kmh 30.00 in1015.9 mb - 0.00 in0.0 mm 0.00 in0.0 mm
10:20 PM 64.9°F18.3°C 60.0°F15.6°C 84% 3.5 mph ENE5.6 kmh ENE 6.9 mph11.1 kmh 30.00 in1015.9 mb - 0.00 in0.0 mm 0.00 in0.0 mm
10:30 PM 64.5°F18.1°C 59.9°F15.5°C 85% Calm Calm 2.3 mph3.7 kmh 30.01 in1016.3 mb - 0.00 in0.0 mm 0.00 in0.0 mm
10:40 PM 63.9°F17.7°C 59.6°F15.3°C 86% 2.3 mph ENE3.7 kmh ENE 4.6 mph7.4 kmh 30.00 in1015.9 mb - 0.00 in0.0 mm 0.00 in0.0 mm
10:50 PM 63.8°F17.7°C 59.5°F15.3°C 86% 2.3 mph ENE3.7 kmh ENE 3.5 mph5.6 kmh 30.00 in1015.9 mb - 0.00 in0.0 mm 0.00 in0.0 mm
11:00 PM 63.6°F17.6°C 59.3°F15.2°C 86% 3.5 mph NE5.6 kmh NE 9.2 mph14.8 kmh 30.00 in1015.9 mb - 0.00 in0.0 mm 0.00 in0.0 mm
11:10 PM 63.6°F17.6°C 59.3°F15.2°C 86% 4.6 mph ENE7.4 kmh ENE 6.9 mph11.1 kmh 30.00 in1015.9 mb - 0.00 in0.0 mm 0.00 in0.0 mm
11:20 PM 63.6°F17.6°C 59.3°F15.2°C 86% 3.5 mph NE5.6 kmh NE 6.9 mph11.1 kmh 30.00 in1015.9 mb - 0.00 in0.0 mm 0.00 in0.0 mm
11:30 PM 63.5°F17.5°C 59.2°F15.1°C 86% 3.5 mph ENE5.6 kmh ENE 6.9 mph11.1 kmh 30.00 in1015.9 mb - 0.00 in0.0 mm 0.00 in0.0 mm
11:40 PM 63.7°F17.6°C 59.5°F15.3°C 86% 4.6 mph ENE7.4 kmh ENE 5.8 mph9.3 kmh 30.00 in1015.9 mb - 0.00 in0.0 mm 0.00 in0.0 mm
11:50 PM 63.4°F17.4°C 59.1°F15.1°C 86% 1.2 mph ENE1.9 kmh ENE 3.5 mph5.6 kmh 30.00 in1015.9 mb - 0.00 in0.0 mm 0.00 in0.0 mm